createdAt,value
2022-09-14T00:01:21.358Z,74.11089
2022-09-14T00:06:25.624Z,74.44328
2022-09-14T00:11:26.580Z,74.75009
2022-09-14T00:16:27.529Z,74.95405
2022-09-14T00:21:28.487Z,75.39657
2022-09-14T00:26:29.419Z,76.03241
2022-09-14T00:31:30.978Z,76.19414
2022-09-14T00:36:32.001Z,76.37678
2022-09-14T00:41:32.990Z,77.29582
2022-09-14T00:46:34.155Z,77.57043
2022-09-14T00:51:35.159Z,77.73142
2022-09-14T00:56:37.886Z,78.47831
2022-09-14T01:01:40.047Z,78.47636
2022-09-14T01:06:41.286Z,79.02713
2022-09-14T01:11:42.409Z,78.31806
2022-09-14T01:16:44.379Z,78.86885
2022-09-14T01:21:45.407Z,78.90375
2022-09-14T01:26:46.402Z,79.09212
2022-09-14T01:31:47.556Z,79.17798
2022-09-14T01:36:48.642Z,79.03578
2022-09-14T01:41:50.640Z,79.08618
2022-09-14T01:46:51.736Z,79.58966
2022-09-14T01:51:52.703Z,79.45456
2022-09-14T01:56:53.714Z,79.10271
2022-09-14T02:01:54.707Z,78.8034
2022-09-14T02:06:55.799Z,79.16937
2022-09-14T02:11:56.779Z,79.15053
2022-09-14T02:16:57.865Z,79.66142
2022-09-14T02:21:59.015Z,79.22994
2022-09-14T02:27:00.006Z,79.992
2022-09-14T02:32:01.210Z,79.59696
2022-09-14T02:37:02.238Z,79.93763
2022-09-14T02:42:03.297Z,80.55411
2022-09-14T02:47:04.414Z,81.26953
2022-09-14T02:52:05.515Z,80.7478
2022-09-14T02:57:06.605Z,80.64901
2022-09-14T03:02:07.668Z,80.97685
2022-09-14T03:07:08.671Z,81.09803
2022-09-14T03:12:09.645Z,80.95916
2022-09-14T03:17:10.674Z,80.64567
2022-09-14T03:22:11.632Z,80.25489
2022-09-14T03:27:12.601Z,79.98919
2022-09-14T03:32:13.509Z,80.34398
2022-09-14T03:37:14.462Z,81.71862
2022-09-14T03:42:15.396Z,82.03588
2022-09-14T03:47:16.412Z,82.04247
2022-09-14T03:52:17.479Z,81.60581
2022-09-14T03:57:18.413Z,81.83902
2022-09-14T04:02:19.342Z,81.88858
2022-09-14T04:07:20.366Z,82.13272
2022-09-14T04:12:21.696Z,81.8923
2022-09-14T04:17:22.603Z,81.61412
2022-09-14T04:22:23.516Z,80.91673
2022-09-14T04:27:24.489Z,81.93552
2022-09-14T04:32:25.497Z,82.36867
2022-09-14T04:37:26.433Z,82.45217
2022-09-14T04:42:27.442Z,82.31789
2022-09-14T04:47:28.380Z,82.3336
2022-09-14T04:52:29.399Z,82.91409
2022-09-14T04:57:30.400Z,83.7044
2022-09-14T05:02:31.424Z,83.92038
2022-09-14T05:07:32.523Z,83.77713
2022-09-14T05:12:33.543Z,84.5949
2022-09-14T05:17:34.567Z,84.76256
2022-09-14T05:22:35.507Z,84.86696
2022-09-14T05:27:36.521Z,83.21535
2022-09-14T05:32:37.867Z,83.9852
2022-09-14T05:37:39.160Z,84.13758
2022-09-14T05:42:40.182Z,83.11698
2022-09-14T05:47:41.174Z,83.54807
2022-09-14T05:52:42.224Z,83.21898
2022-09-14T05:57:43.604Z,83.60609
2022-09-14T06:02:44.698Z,84.18484
2022-09-14T06:07:45.776Z,85.23938
2022-09-14T06:12:46.705Z,85.23655
2022-09-14T06:17:47.754Z,85.80155
2022-09-14T06:22:48.744Z,85.49523
2022-09-14T06:27:49.684Z,85.91139
2022-09-14T06:32:50.721Z,86.32803
2022-09-14T06:37:51.773Z,86.22881
2022-09-14T06:42:52.736Z,86.47675
2022-09-14T06:47:53.797Z,85.97634
2022-09-14T06:52:54.755Z,86.03399
2022-09-14T06:57:55.665Z,85.45957
2022-09-14T07:02:56.657Z,86.13105
2022-09-14T07:07:57.623Z,85.5995
2022-09-14T07:12:58.602Z,85.76915
2022-09-14T07:17:59.713Z,86.02997
2022-09-14T07:23:00.626Z,85.83079
2022-09-14T07:28:01.838Z,85.42346
2022-09-14T07:33:02.791Z,86.03589
2022-09-14T07:38:03.865Z,86.27464
2022-09-14T07:43:05.080Z,86.39514
2022-09-14T07:48:06.038Z,86.19214
2022-09-14T07:53:07.008Z,86.61231
2022-09-14T07:58:07.948Z,86.54926
2022-09-14T08:03:08.923Z,85.97694
2022-09-14T08:08:09.880Z,85.89638
2022-09-14T08:13:10.893Z,86.21342
2022-09-14T08:18:11.901Z,85.95212
2022-09-14T08:23:12.848Z,86.36229
2022-09-14T08:28:13.774Z,85.86785
2022-09-14T08:33:14.810Z,86.37057
2022-09-14T08:38:15.957Z,87.05474
2022-09-14T08:43:16.998Z,87.55627
2022-09-14T08:48:17.985Z,87.63293
2022-09-14T08:53:18.920Z,87.33442
2022-09-14T08:58:19.844Z,87.66998
2022-09-14T09:03:20.788Z,87.35357
2022-09-14T09:08:22.069Z,88.79981
2022-09-14T09:13:22.972Z,89.10124
2022-09-14T09:18:24.016Z,88.90115
2022-09-14T09:23:24.906Z,88.35667
2022-09-14T09:28:25.835Z,88.99207
2022-09-14T09:33:26.783Z,88.53662
2022-09-14T09:38:27.733Z,89.09432
2022-09-14T09:43:48.407Z,89.93656
2022-09-14T09:48:50.647Z,89.86468
2022-09-14T09:53:51.649Z,90.00789
2022-09-14T09:58:52.565Z,90.14966
2022-09-14T10:03:53.476Z,91.12007
2022-09-14T10:08:54.538Z,90.9493
2022-09-14T10:13:55.569Z,90.99031
2022-09-14T10:18:56.456Z,91.145
2022-09-14T10:23:57.788Z,91.46595
2022-09-14T10:28:58.812Z,91.79483
2022-09-14T10:33:59.928Z,91.60538
2022-09-14T10:39:00.902Z,91.94392
2022-09-14T10:44:01.816Z,92.34488
2022-09-14T10:49:02.835Z,93.24371
2022-09-14T10:54:03.818Z,94.02625
2022-09-14T10:59:04.731Z,93.70644
2022-09-14T11:04:05.663Z,93.59434
2022-09-14T11:09:06.711Z,93.36001
2022-09-14T11:14:07.645Z,93.45918
2022-09-14T11:19:08.583Z,92.73369
2022-09-14T11:24:09.522Z,93.19875
2022-09-14T11:29:10.512Z,94.14527
2022-09-14T11:34:11.434Z,93.46281
2022-09-14T11:39:12.473Z,92.85536
2022-09-14T11:44:13.549Z,93.24262
2022-09-14T11:49:14.446Z,93.46554
2022-09-14T11:54:15.385Z,93.92673
2022-09-14T11:59:16.302Z,94.32621
2022-09-14T12:04:17.356Z,95.57235
2022-09-14T12:09:18.344Z,96.31464
2022-09-14T12:14:19.283Z,94.9163
2022-09-14T12:19:20.194Z,95.53876
2022-09-14T12:24:21.183Z,95.12652
2022-09-14T12:29:22.425Z,95.52568
2022-09-14T12:34:23.367Z,96.3228
2022-09-14T12:39:24.345Z,96.0424
2022-09-14T12:44:25.323Z,96.03489
2022-09-14T12:49:26.304Z,97.26906
2022-09-14T12:54:27.363Z,97.01857
2022-09-14T12:59:28.339Z,97.54093
2022-09-14T13:04:29.386Z,98.04587
2022-09-14T13:09:30.308Z,98.46891
2022-09-14T13:14:31.283Z,100.13814
2022-09-14T13:19:32.237Z,101.16484
2022-09-14T13:24:33.313Z,101.35242
2022-09-14T13:29:34.309Z,101.78964
2022-09-14T13:34:35.255Z,101.77354
2022-09-14T13:39:36.306Z,101.86434
2022-09-14T13:44:37.336Z,102.4719
2022-09-14T13:49:38.273Z,102.67491
2022-09-14T13:54:39.197Z,102.27525
2022-09-14T13:59:40.260Z,102.11703
2022-09-14T14:04:41.206Z,102.76768
2022-09-14T14:09:42.147Z,103.74595
2022-09-14T14:14:43.116Z,104.13725
2022-09-14T14:19:44.114Z,104.90548
2022-09-14T14:25:11.739Z,104.83792
2022-09-14T14:30:14.180Z,105.16105
2022-09-14T14:35:15.220Z,105.19431
2022-09-14T14:40:16.322Z,105.79637
2022-09-14T14:45:17.522Z,105.53862
2022-09-14T14:50:18.536Z,105.03948
2022-09-14T14:55:19.501Z,105.03961
2022-09-14T15:00:20.628Z,105.33129
2022-09-14T15:05:21.907Z,105.98641
2022-09-14T15:10:22.987Z,106.42834
2022-09-14T15:15:23.969Z,106.92764
2022-09-14T15:20:24.975Z,107.23877
2022-09-14T15:25:25.896Z,107.66287
2022-09-14T15:30:26.838Z,106.87088
2022-09-14T15:35:27.859Z,107.3006
2022-09-14T15:40:29.051Z,107.70927
2022-09-14T15:45:30.175Z,107.74714
2022-09-14T15:50:31.233Z,107.85116
2022-09-14T15:55:32.167Z,107.94309
2022-09-14T16:00:33.119Z,107.63891
2022-09-14T16:05:34.156Z,107.35033
2022-09-14T16:10:35.187Z,106.89667
2022-09-14T16:15:36.124Z,107.13487
2022-09-14T16:20:37.366Z,106.69196
2022-09-14T16:25:38.308Z,107.47459
2022-09-14T16:30:39.257Z,108.2737
2022-09-14T16:35:40.294Z,108.19822
2022-09-14T16:40:42.968Z,107.34427
2022-09-14T16:45:44.069Z,107.38341
2022-09-14T16:50:45.016Z,107.1906
2022-09-14T16:55:46.283Z,107.67963
2022-09-14T17:00:47.338Z,107.48938
2022-09-14T17:05:48.374Z,107.84361
2022-09-14T17:10:49.299Z,108.28528
2022-09-14T17:15:50.360Z,108.38853
2022-09-14T17:20:51.293Z,108.46691
2022-09-14T17:25:52.212Z,108.35576
2022-09-14T17:30:53.239Z,109.56739
2022-09-14T17:35:54.161Z,109.19089
2022-09-14T17:40:55.604Z,109.39118
2022-09-14T17:45:56.601Z,109.70349
2022-09-14T17:50:57.598Z,109.25911
2022-09-14T17:55:58.592Z,108.9301
2022-09-14T18:00:59.735Z,108.87999
2022-09-14T18:06:00.722Z,109.87557
2022-09-14T18:11:01.812Z,110.67633
2022-09-14T18:16:02.861Z,111.04394
2022-09-14T18:21:03.885Z,111.50581
2022-09-14T18:26:04.927Z,111.51811
2022-09-14T18:31:06.184Z,111.56409
2022-09-14T18:36:07.177Z,111.63851
2022-09-14T18:41:08.361Z,112.46418
2022-09-14T18:46:09.439Z,111.53225
2022-09-14T18:51:10.452Z,111.03352
2022-09-14T18:56:11.331Z,110.90899
2022-09-14T19:01:12.333Z,111.16494
2022-09-14T19:06:13.248Z,112.10893
2022-09-14T19:11:14.260Z,111.83061
2022-09-14T19:16:15.443Z,111.4159
2022-09-14T19:21:16.486Z,111.52586
2022-09-14T19:26:17.412Z,110.85919
2022-09-14T19:31:18.496Z,111.30084
2022-09-14T19:36:19.444Z,110.92508
2022-09-14T19:41:20.449Z,110.56551
2022-09-14T19:46:21.558Z,110.84953
2022-09-14T19:51:22.708Z,110.61941
2022-09-14T19:56:23.686Z,110.59702
2022-09-14T20:01:24.640Z,110.76373
2022-09-14T20:06:25.603Z,110.68208
2022-09-14T20:11:26.552Z,110.81832
2022-09-14T20:16:27.550Z,111.01741
2022-09-14T20:21:28.492Z,111.4673
2022-09-14T20:26:29.604Z,111.00427
2022-09-14T20:31:30.980Z,111.27171
2022-09-14T20:36:31.917Z,111.11123
2022-09-14T20:41:32.926Z,111.70343
2022-09-14T20:46:33.899Z,111.65296
2022-09-14T20:51:34.962Z,110.73991
2022-09-14T20:56:35.909Z,110.54878
2022-09-14T21:01:38.853Z,110.61288
2022-09-14T21:06:40.700Z,111.00731
2022-09-14T21:11:41.950Z,111.03366
2022-09-14T21:16:43.111Z,111.3302
2022-09-14T21:21:44.208Z,111.60633
2022-09-14T21:26:45.187Z,111.18904
2022-09-14T21:31:46.117Z,111.20797
2022-09-14T21:36:47.038Z,110.59458
2022-09-14T21:41:48.011Z,110.77581
2022-09-14T21:46:49.143Z,110.87482
2022-09-14T21:51:50.090Z,110.53889
2022-09-14T21:56:51.139Z,110.17458
2022-09-14T22:01:52.236Z,111.21842
2022-09-14T22:06:53.222Z,111.45786
2022-09-14T22:11:54.342Z,111.33043
2022-09-14T22:16:55.338Z,112.04199
2022-09-14T22:21:56.299Z,111.93221
2022-09-14T22:26:57.252Z,111.72555
2022-09-14T22:31:58.324Z,111.49684
2022-09-14T22:36:59.251Z,111.7796
2022-09-14T22:42:00.234Z,111.62844
2022-09-14T22:47:01.300Z,112.64571
2022-09-14T22:52:02.340Z,112.55004
2022-09-14T22:57:03.299Z,111.92102
2022-09-14T23:02:04.263Z,111.97178
2022-09-14T23:07:05.250Z,111.72351
2022-09-14T23:12:06.257Z,111.44664
2022-09-14T23:17:07.326Z,111.59599
2022-09-14T23:22:08.347Z,111.55917
2022-09-14T23:27:09.301Z,111.97382
2022-09-14T23:32:10.417Z,112.58159
2022-09-14T23:37:11.330Z,112.81151
2022-09-14T23:42:12.317Z,112.49631
2022-09-14T23:47:13.542Z,112.91673
2022-09-14T23:52:14.542Z,113.51668
2022-09-14T23:57:15.525Z,113.46142
